createdAt,value
2019-02-18T00:00:27.967Z,9.00
2019-02-18T00:01:27.925Z,7.70
2019-02-18T00:02:27.927Z,7.40
2019-02-18T00:03:27.906Z,7.30
2019-02-18T00:04:27.894Z,7.40
2019-02-18T00:05:27.888Z,7.60
2019-02-18T00:06:27.893Z,7.60
2019-02-18T00:07:27.862Z,8.40
2019-02-18T00:08:27.855Z,8.60
2019-02-18T00:09:27.838Z,7.60
2019-02-18T00:10:27.832Z,7.90
2019-02-18T00:11:27.856Z,8.40
2019-02-18T00:12:27.819Z,8.60
2019-02-18T00:13:27.798Z,9.70
2019-02-18T00:14:27.786Z,7.50
2019-02-18T00:15:27.781Z,7.60
2019-02-18T00:16:27.767Z,7.20
2019-02-18T00:17:27.787Z,8.40
2019-02-18T00:18:27.745Z,7.50
2019-02-18T00:19:27.738Z,6.90
2019-02-18T00:20:27.723Z,7.70
2019-02-18T00:21:27.715Z,7.10
2019-02-18T00:22:27.701Z,7.10
2019-02-18T00:23:27.723Z,7.60
2019-02-18T00:24:27.687Z,6.90
2019-02-18T00:25:27.674Z,7.90
2019-02-18T00:26:27.671Z,8.30
2019-02-18T00:27:27.656Z,7.50
2019-02-18T00:28:27.642Z,8.30
2019-02-18T00:29:27.654Z,6.80
2019-02-18T00:30:27.623Z,6.90
2019-02-18T00:31:27.610Z,7.70
2019-02-18T00:32:27.601Z,6.90
2019-02-18T00:33:27.595Z,8.00
2019-02-18T00:34:27.620Z,8.00
2019-02-18T00:35:27.570Z,7.10
2019-02-18T00:36:27.563Z,7.50
2019-02-18T00:37:27.545Z,7.00
2019-02-18T00:38:27.539Z,8.20
2019-02-18T00:39:27.528Z,7.20
2019-02-18T00:40:27.547Z,7.00
2019-02-18T00:41:27.505Z,7.40
2019-02-18T00:42:27.497Z,7.90
2019-02-18T00:43:27.486Z,7.10
2019-02-18T00:44:27.471Z,8.00
2019-02-18T00:45:27.464Z,6.60
2019-02-18T00:46:27.471Z,6.70
2019-02-18T00:47:27.465Z,6.70
2019-02-18T00:48:27.431Z,7.40
2019-02-18T00:49:27.426Z,6.50
2019-02-18T00:50:27.415Z,6.40
2019-02-18T00:51:27.443Z,7.40
2019-02-18T00:52:27.393Z,7.10
2019-02-18T00:53:27.383Z,6.50
2019-02-18T00:54:27.371Z,6.70
2019-02-18T00:55:27.358Z,6.80
2019-02-18T00:56:27.349Z,7.00
2019-02-18T00:57:27.356Z,7.00
2019-02-18T00:58:27.325Z,7.20
2019-02-18T00:59:27.318Z,6.80
2019-02-18T01:00:27.312Z,7.30
2019-02-18T01:01:27.300Z,6.70
2019-02-18T01:02:27.321Z,6.80
2019-02-18T01:03:27.280Z,7.10
2019-02-18T01:04:27.269Z,6.90
2019-02-18T01:05:27.255Z,7.10
2019-02-18T01:06:27.251Z,7.70
2019-02-18T01:07:34.499Z,7.30
2019-02-18T01:08:28.241Z,7.60
2019-02-18T01:09:27.219Z,6.80
2019-02-18T01:10:27.208Z,6.80
2019-02-18T01:11:27.198Z,6.60
2019-02-18T01:12:27.184Z,7.70
2019-02-18T01:13:27.201Z,7.30
2019-02-18T01:14:27.167Z,7.10
2019-02-18T01:15:27.160Z,6.20
2019-02-18T01:16:27.143Z,6.40
2019-02-18T01:17:27.139Z,7.20
2019-02-18T01:18:27.123Z,6.80
2019-02-18T01:19:27.162Z,8.60
2019-02-18T01:20:27.100Z,6.60
2019-02-18T01:21:27.094Z,7.30
2019-02-18T01:22:27.088Z,6.20
2019-02-18T01:23:27.072Z,6.90
2019-02-18T01:24:27.064Z,7.00
2019-02-18T01:25:27.073Z,6.00
2019-02-18T01:26:27.041Z,6.50
2019-02-18T01:27:27.030Z,6.30
2019-02-18T01:28:27.021Z,6.80
2019-02-18T01:29:27.014Z,6.10
2019-02-18T01:30:27.018Z,6.60
2019-02-18T01:31:26.998Z,6.00
2019-02-18T01:32:26.983Z,7.70
2019-02-18T01:33:26.965Z,6.20
2019-02-18T01:34:26.961Z,6.20
2019-02-18T01:35:26.963Z,6.10
2019-02-18T01:36:26.939Z,6.20
2019-02-18T01:37:26.930Z,6.00
2019-02-18T01:38:26.917Z,6.70
2019-02-18T01:39:26.908Z,6.60
2019-02-18T01:40:26.911Z,6.80
2019-02-18T01:41:26.887Z,6.40
2019-02-18T01:42:26.878Z,6.30
2019-02-18T01:43:26.873Z,6.60
2019-02-18T01:44:26.851Z,6.60
2019-02-18T01:45:26.876Z,6.90
2019-02-18T01:46:26.837Z,5.70
2019-02-18T01:47:26.823Z,6.50
2019-02-18T01:48:26.812Z,7.30
2019-02-18T01:49:26.796Z,7.40
2019-02-18T01:50:26.787Z,8.60
2019-02-18T01:51:26.797Z,7.00
2019-02-18T01:52:26.766Z,6.40
2019-02-18T01:53:26.756Z,6.30
2019-02-18T01:54:26.750Z,6.60
2019-02-18T01:55:26.734Z,6.10
2019-02-18T01:56:26.740Z,6.20
2019-02-18T01:57:26.718Z,6.20
2019-02-18T01:58:26.704Z,7.00
2019-02-18T01:59:26.695Z,6.30
2019-02-18T02:00:26.684Z,6.80
2019-02-18T02:01:26.685Z,6.20
2019-02-18T02:02:26.663Z,6.80
2019-02-18T02:03:26.653Z,6.20
2019-02-18T02:04:26.648Z,6.60
2019-02-18T02:05:26.640Z,6.20
2019-02-18T02:06:26.640Z,6.40
2019-02-18T02:07:26.614Z,6.50
2019-02-18T02:08:26.600Z,6.10
2019-02-18T02:09:26.591Z,6.00
2019-02-18T02:10:26.577Z,6.70
2019-02-18T02:11:26.572Z,6.20
2019-02-18T02:12:26.593Z,7.10
2019-02-18T02:13:26.563Z,6.00
2019-02-18T02:14:26.535Z,6.30
2019-02-18T02:15:26.524Z,6.70
2019-02-18T02:16:26.517Z,6.80
2019-02-18T02:17:26.508Z,6.20
2019-02-18T02:18:26.526Z,6.40
2019-02-18T02:19:26.487Z,7.10
2019-02-18T02:20:26.482Z,6.00
2019-02-18T02:21:26.467Z,7.40
2019-02-18T02:22:26.459Z,6.60
2019-02-18T02:23:26.446Z,6.40
2019-02-18T02:24:26.467Z,6.50
2019-02-18T02:25:26.422Z,6.70
2019-02-18T02:26:26.413Z,6.60
2019-02-18T02:27:26.399Z,8.50
2019-02-18T02:28:26.396Z,6.80
2019-02-18T02:29:26.381Z,7.60
2019-02-18T02:30:26.402Z,6.40
2019-02-18T02:31:26.360Z,6.20
2019-02-18T02:32:26.358Z,6.60
2019-02-18T02:33:26.347Z,6.50
2019-02-18T02:34:26.334Z,9.30
2019-02-18T02:35:26.327Z,6.80
2019-02-18T02:36:26.325Z,7.80
2019-02-18T02:37:26.298Z,6.40
2019-02-18T02:38:26.292Z,6.60
2019-02-18T02:39:26.289Z,6.60
2019-02-18T02:40:26.273Z,7.10
2019-02-18T02:41:26.277Z,6.50
2019-02-18T02:42:26.246Z,6.60
2019-02-18T02:43:26.237Z,7.40
2019-02-18T02:44:26.226Z,7.90
2019-02-18T02:45:26.218Z,6.70
2019-02-18T02:46:26.204Z,7.30
2019-02-18T02:47:26.226Z,6.60
2019-02-18T02:48:26.193Z,6.70
2019-02-18T02:49:26.171Z,6.40
2019-02-18T02:50:26.175Z,7.00
2019-02-18T02:51:26.150Z,6.30
2019-02-18T02:52:26.154Z,7.80
2019-02-18T02:53:26.135Z,7.00
2019-02-18T02:54:26.119Z,8.40
2019-02-18T02:55:26.109Z,6.60
2019-02-18T02:56:26.100Z,6.80
2019-02-18T02:57:26.121Z,6.40
2019-02-18T02:58:26.074Z,6.30
2019-02-18T02:59:26.066Z,6.20
2019-02-18T03:00:26.055Z,6.60
2019-02-18T03:01:26.041Z,6.30
2019-02-18T03:02:26.032Z,6.70
2019-02-18T03:03:26.039Z,6.60
2019-02-18T03:04:26.016Z,6.60
2019-02-18T03:05:26.005Z,6.20
2019-02-18T03:06:25.990Z,6.20
2019-02-18T03:07:25.992Z,6.70
2019-02-18T03:08:25.997Z,6.20
2019-02-18T03:09:25.966Z,7.50
2019-02-18T03:10:25.951Z,6.50
2019-02-18T03:11:25.942Z,6.70
2019-02-18T03:12:25.933Z,6.80
2019-02-18T03:13:25.933Z,6.50
2019-02-18T03:14:25.912Z,5.90
2019-02-18T03:15:25.896Z,6.80
2019-02-18T03:16:25.888Z,6.90
2019-02-18T03:17:25.894Z,6.30
2019-02-18T03:18:25.896Z,6.80
2019-02-18T03:19:25.858Z,7.40
2019-02-18T03:20:25.848Z,6.70
2019-02-18T03:21:25.834Z,7.20
2019-02-18T03:22:25.820Z,6.10
2019-02-18T03:23:25.839Z,6.20
2019-02-18T03:24:25.800Z,7.20
2019-02-18T03:25:25.791Z,7.80
2019-02-18T03:26:25.785Z,8.90
2019-02-18T03:27:25.768Z,6.40
2019-02-18T03:28:25.774Z,6.50
2019-02-18T03:29:25.758Z,6.20
2019-02-18T03:30:25.749Z,7.20
2019-02-18T03:31:25.728Z,6.40
2019-02-18T03:32:25.717Z,7.00
2019-02-18T03:33:25.723Z,6.20
2019-02-18T03:34:25.696Z,6.80
2019-02-18T03:35:25.685Z,7.90
2019-02-18T03:36:25.677Z,6.60
2019-02-18T03:37:25.671Z,6.20
2019-02-18T03:38:31.393Z,6.90
2019-02-18T03:39:26.645Z,6.60
2019-02-18T03:40:25.631Z,6.30
2019-02-18T03:41:25.624Z,7.70
2019-02-18T03:42:25.615Z,6.30
2019-02-18T03:43:25.607Z,6.70
2019-02-18T03:44:25.607Z,6.30
2019-02-18T03:45:25.583Z,6.10
2019-02-18T03:46:25.573Z,6.60
2019-02-18T03:47:25.567Z,5.90
2019-02-18T03:48:25.549Z,6.80
2019-02-18T03:49:25.559Z,6.40
2019-02-18T03:50:25.529Z,6.00
2019-02-18T03:51:25.514Z,6.60
2019-02-18T03:52:25.513Z,6.40
2019-02-18T03:53:25.499Z,6.50
2019-02-18T03:54:25.497Z,6.50
2019-02-18T03:55:25.474Z,6.20
2019-02-18T03:56:25.466Z,6.80
2019-02-18T03:57:25.461Z,8.00
2019-02-18T03:58:25.445Z,7.70
2019-02-18T03:59:25.485Z,6.70
2019-02-18T04:00:25.431Z,6.50
2019-02-18T04:01:25.415Z,6.90
2019-02-18T04:02:25.407Z,6.70
2019-02-18T04:03:25.388Z,6.80
2019-02-18T04:04:25.402Z,7.10
2019-02-18T04:05:25.373Z,6.50
2019-02-18T04:06:25.357Z,6.40
2019-02-18T04:07:25.342Z,7.60
2019-02-18T04:08:25.334Z,7.00
2019-02-18T04:09:25.342Z,6.90
2019-02-18T04:10:25.313Z,7.40
2019-02-18T04:11:25.316Z,6.60
2019-02-18T04:12:25.295Z,6.80
2019-02-18T04:13:25.287Z,7.10
2019-02-18T04:14:25.300Z,7.10
2019-02-18T04:15:25.260Z,7.90
2019-02-18T04:16:25.257Z,6.90
2019-02-18T04:17:25.240Z,6.90
2019-02-18T04:18:25.233Z,6.90
2019-02-18T04:19:25.236Z,6.80
2019-02-18T04:20:25.215Z,7.50
2019-02-18T04:21:25.202Z,7.60
2019-02-18T04:22:25.191Z,8.20
2019-02-18T04:23:25.178Z,7.00
2019-02-18T04:24:25.217Z,7.00
2019-02-18T04:25:25.159Z,7.40
2019-02-18T04:26:25.145Z,7.40
2019-02-18T04:27:25.141Z,7.20
2019-02-18T04:28:25.124Z,7.20
2019-02-18T04:29:25.150Z,7.90
2019-02-18T04:30:25.126Z,6.30
2019-02-18T04:31:25.100Z,7.30
2019-02-18T04:32:25.089Z,8.50
2019-02-18T04:33:25.076Z,7.30
2019-02-18T04:34:25.060Z,6.60
2019-02-18T04:35:25.068Z,6.60
2019-02-18T04:36:25.044Z,8.40
2019-02-18T04:37:25.029Z,6.30
2019-02-18T04:38:25.021Z,6.10
2019-02-18T04:39:25.021Z,7.40
2019-02-18T04:40:25.016Z,8.20
2019-02-18T04:41:24.995Z,7.60
2019-02-18T04:42:24.983Z,7.70
2019-02-18T04:43:24.968Z,7.00
2019-02-18T04:44:24.960Z,7.00
2019-02-18T04:45:24.984Z,6.70
2019-02-18T04:46:24.946Z,7.00
2019-02-18T04:47:24.928Z,6.90
2019-02-18T04:48:24.921Z,8.80
2019-02-18T04:49:24.911Z,7.60
2019-02-18T04:50:24.897Z,7.20
2019-02-18T04:51:24.901Z,7.60
2019-02-18T04:52:24.874Z,7.30
2019-02-18T04:53:24.868Z,6.90
2019-02-18T04:54:24.854Z,8.60
2019-02-18T04:55:24.846Z,7.10
2019-02-18T04:56:24.852Z,7.90
2019-02-18T04:57:24.837Z,7.50
2019-02-18T04:58:24.812Z,7.50
2019-02-18T04:59:24.802Z,7.80
2019-02-18T05:00:24.791Z,7.10
2019-02-18T05:01:24.821Z,7.20
2019-02-18T05:02:24.774Z,7.90
2019-02-18T05:03:24.762Z,7.20
2019-02-18T05:04:24.751Z,10.90
2019-02-18T05:05:24.743Z,6.90
2019-02-18T05:06:25.516Z,6.50
2019-02-18T05:07:24.747Z,5.60
2019-02-18T05:08:24.715Z,5.40
2019-02-18T05:09:24.699Z,6.20
2019-02-18T05:10:24.705Z,7.20
2019-02-18T05:11:24.678Z,8.00
2019-02-18T05:12:24.670Z,7.20
2019-02-18T05:13:24.689Z,7.60
2019-02-18T05:14:24.653Z,9.10
2019-02-18T05:15:24.638Z,7.10
2019-02-18T05:16:24.630Z,8.50
2019-02-18T05:17:24.618Z,8.40
2019-02-18T05:18:24.620Z,7.50
2019-02-18T05:19:24.620Z,8.20
2019-02-18T05:20:24.590Z,7.80
2019-02-18T05:21:24.575Z,7.70
2019-02-18T05:22:24.566Z,7.70
2019-02-18T05:23:24.557Z,8.10
2019-02-18T05:24:24.575Z,7.30
2019-02-18T05:25:24.540Z,8.30
2019-02-18T05:26:24.522Z,8.20
2019-02-18T05:27:32.982Z,8.50
2019-02-18T05:28:25.499Z,8.40
2019-02-18T05:29:24.498Z,8.80
2019-02-18T05:30:24.513Z,8.70
2019-02-18T05:31:24.474Z,8.20
2019-02-18T05:32:24.469Z,9.10
2019-02-18T05:33:24.449Z,8.50
2019-02-18T05:34:24.454Z,8.50
2019-02-18T05:35:24.435Z,6.60
2019-02-18T05:36:24.438Z,6.40
2019-02-18T05:37:24.413Z,8.90
2019-02-18T05:38:24.400Z,8.60
2019-02-18T05:39:24.393Z,8.50
2019-02-18T05:40:24.386Z,9.00
2019-02-18T05:41:24.414Z,8.00
2019-02-18T05:42:24.372Z,8.30
2019-02-18T05:43:24.355Z,7.90
2019-02-18T05:44:24.343Z,10.20
2019-02-18T05:45:24.323Z,8.70
2019-02-18T05:46:24.341Z,8.60
2019-02-18T05:47:24.311Z,9.00
2019-02-18T05:48:24.292Z,10.20
2019-02-18T05:49:24.286Z,8.60
2019-02-18T05:50:24.278Z,13.40
2019-02-18T05:51:24.273Z,8.20
2019-02-18T05:52:24.272Z,8.70
2019-02-18T05:53:24.247Z,6.50
2019-02-18T05:54:24.235Z,8.00
2019-02-18T05:55:24.225Z,12.20
2019-02-18T05:56:24.214Z,9.30
2019-02-18T05:57:24.225Z,9.60
2019-02-18T05:58:24.194Z,9.50
2019-02-18T05:59:24.185Z,11.10
2019-02-18T06:00:24.170Z,11.00
2019-02-18T06:01:24.161Z,11.40
2019-02-18T06:02:24.159Z,10.50
2019-02-18T06:03:24.163Z,13.50
2019-02-18T06:04:24.133Z,11.70
2019-02-18T06:05:24.123Z,15.20
2019-02-18T06:06:24.117Z,12.50
2019-02-18T06:07:24.092Z,13.30
2019-02-18T06:08:24.097Z,15.10
2019-02-18T06:09:29.814Z,17.30
2019-02-18T06:10:25.067Z,11.90
2019-02-18T06:11:24.083Z,21.40
2019-02-18T06:12:24.041Z,15.90
2019-02-18T06:13:24.038Z,15.00
2019-02-18T06:14:24.040Z,16.60
2019-02-18T06:15:24.020Z,15.20
2019-02-18T06:16:23.999Z,15.00
2019-02-18T06:17:23.998Z,20.30
2019-02-18T06:18:23.985Z,18.20
2019-02-18T06:19:23.997Z,14.80
2019-02-18T06:20:23.959Z,13.80
2019-02-18T06:21:23.952Z,19.70
2019-02-18T06:22:23.951Z,14.50
2019-02-18T06:23:23.928Z,17.50
2019-02-18T06:24:23.934Z,19.00
2019-02-18T06:25:23.928Z,16.70
2019-02-18T06:26:23.892Z,16.70
2019-02-18T06:27:23.891Z,20.50
2019-02-18T06:28:23.877Z,16.60
2019-02-18T06:29:23.869Z,19.90
2019-02-18T06:30:23.879Z,16.20
2019-02-18T06:31:23.848Z,16.00
2019-02-18T06:32:23.843Z,18.70
2019-02-18T06:33:23.831Z,21.30
2019-02-18T06:34:23.826Z,15.00
2019-02-18T06:35:23.804Z,16.80
2019-02-18T06:36:24.061Z,19.40
2019-02-18T06:37:23.786Z,17.80
2019-02-18T06:38:23.782Z,17.60
2019-02-18T06:39:23.773Z,15.90
2019-02-18T06:40:23.769Z,14.60
2019-02-18T06:41:23.778Z,18.40
2019-02-18T06:42:23.733Z,20.30
2019-02-18T06:43:23.727Z,15.90
2019-02-18T06:44:23.712Z,17.00
2019-02-18T06:45:23.702Z,17.40
2019-02-18T06:46:23.693Z,18.40
2019-02-18T06:47:25.269Z,16.80
2019-02-18T06:48:23.669Z,16.40
2019-02-18T06:49:23.664Z,14.90
2019-02-18T06:50:23.651Z,16.20
2019-02-18T06:51:23.641Z,17.90
2019-02-18T06:52:23.647Z,14.10
2019-02-18T06:53:23.622Z,17.60
2019-02-18T06:54:23.615Z,16.30
2019-02-18T06:55:23.629Z,16.10
2019-02-18T06:56:23.591Z,16.60
2019-02-18T06:57:23.598Z,14.10
2019-02-18T06:58:23.587Z,13.60
2019-02-18T06:59:23.560Z,12.60
2019-02-18T07:00:23.544Z,14.00
2019-02-18T07:01:23.537Z,15.10
2019-02-18T07:02:23.591Z,15.20
2019-02-18T07:03:23.514Z,13.10
2019-02-18T07:04:23.504Z,12.50
2019-02-18T07:05:23.501Z,15.40
2019-02-18T07:06:23.530Z,14.70
2019-02-18T07:07:23.492Z,13.30
2019-02-18T07:08:23.462Z,13.70
2019-02-18T07:09:23.455Z,16.40
2019-02-18T07:10:23.447Z,13.60
2019-02-18T07:11:23.437Z,14.90
2019-02-18T07:12:23.439Z,12.00
2019-02-18T07:13:23.417Z,12.10
2019-02-18T07:14:23.405Z,13.60
2019-02-18T07:15:23.400Z,13.00
2019-02-18T07:16:23.389Z,14.40
2019-02-18T07:17:23.402Z,14.10
2019-02-18T07:18:23.363Z,12.10
2019-02-18T07:19:23.348Z,12.40
2019-02-18T07:20:23.348Z,13.20
2019-02-18T07:21:23.326Z,12.10
2019-02-18T07:22:23.331Z,14.00
2019-02-18T07:23:23.308Z,11.40
2019-02-18T07:24:23.299Z,11.80
2019-02-18T07:25:23.288Z,12.40
2019-02-18T07:26:23.277Z,15.20
2019-02-18T07:27:23.288Z,14.20
2019-02-18T07:28:23.253Z,12.30
2019-02-18T07:29:23.253Z,13.10
2019-02-18T07:30:23.235Z,15.70
2019-02-18T07:31:23.292Z,13.00
2019-02-18T07:32:23.212Z,15.80
2019-02-18T07:33:23.307Z,14.10
2019-02-18T07:34:23.197Z,12.10
2019-02-18T07:35:23.185Z,12.60
2019-02-18T07:36:23.168Z,13.20
2019-02-18T07:37:23.165Z,13.80
2019-02-18T07:38:23.163Z,12.50
2019-02-18T07:39:23.143Z,16.40
2019-02-18T07:40:23.133Z,13.20
2019-02-18T07:41:23.122Z,11.90
2019-02-18T07:42:23.110Z,14.50
2019-02-18T07:43:23.304Z,17.60
2019-02-18T07:44:23.087Z,16.20
2019-02-18T07:45:23.071Z,19.80
2019-02-18T07:46:23.066Z,11.10
2019-02-18T07:47:23.053Z,13.70
2019-02-18T07:48:23.059Z,13.70
2019-02-18T07:49:23.037Z,13.30
2019-02-18T07:50:23.022Z,13.60
2019-02-18T07:51:23.011Z,15.40
2019-02-18T07:52:23.005Z,13.40
2019-02-18T07:53:23.004Z,13.00
2019-02-18T07:54:22.986Z,16.00
2019-02-18T07:55:22.972Z,15.00
2019-02-18T07:56:22.957Z,16.70
2019-02-18T07:57:22.971Z,12.00
2019-02-18T07:58:22.959Z,14.90
2019-02-18T07:59:22.943Z,19.40
2019-02-18T08:00:22.925Z,14.20
2019-02-18T08:01:22.912Z,12.10
2019-02-18T08:02:22.899Z,13.20
2019-02-18T08:03:22.902Z,13.80
2019-02-18T08:04:22.880Z,13.80
2019-02-18T08:05:22.869Z,13.40
2019-02-18T08:06:22.858Z,12.80
2019-02-18T08:07:22.847Z,13.40
2019-02-18T08:08:22.866Z,19.50
2019-02-18T08:09:22.822Z,12.90
2019-02-18T08:10:22.812Z,15.20
2019-02-18T08:11:22.804Z,11.70
2019-02-18T08:12:22.807Z,12.00
2019-02-18T08:13:22.780Z,13.80
2019-02-18T08:14:22.793Z,14.90
2019-02-18T08:15:22.757Z,13.90
2019-02-18T08:16:22.746Z,14.30
2019-02-18T08:17:22.733Z,13.40
2019-02-18T08:18:22.725Z,16.10
2019-02-18T08:19:22.735Z,15.20
2019-02-18T08:20:22.711Z,13.80
2019-02-18T08:21:22.697Z,15.20
2019-02-18T08:22:22.684Z,11.50
2019-02-18T08:23:22.673Z,12.80
2019-02-18T08:24:22.738Z,15.50
2019-02-18T08:25:22.652Z,13.70
2019-02-18T08:26:22.643Z,14.00
2019-02-18T08:27:22.633Z,14.70
2019-02-18T08:28:22.623Z,12.20
2019-02-18T08:29:22.629Z,15.70
2019-02-18T08:30:22.596Z,11.90
2019-02-18T08:31:22.585Z,12.70
2019-02-18T08:32:22.573Z,16.80
2019-02-18T08:33:22.569Z,11.80
2019-02-18T08:34:22.570Z,11.90
2019-02-18T08:35:22.552Z,17.50
2019-02-18T08:36:22.536Z,15.60
2019-02-18T08:37:22.527Z,17.60
2019-02-18T08:38:22.510Z,15.00
2019-02-18T08:39:22.516Z,15.10
2019-02-18T08:40:22.870Z,14.50
2019-02-18T08:41:22.480Z,16.80
2019-02-18T08:42:22.474Z,16.80
2019-02-18T08:43:22.459Z,14.20
2019-02-18T08:44:22.467Z,15.10
2019-02-18T08:45:22.440Z,11.60
2019-02-18T08:46:22.431Z,13.70
2019-02-18T08:47:22.422Z,12.90
2019-02-18T08:48:24.082Z,12.70
2019-02-18T08:49:22.410Z,12.80
2019-02-18T08:50:22.398Z,14.20
2019-02-18T08:51:22.386Z,14.20
2019-02-18T08:52:22.369Z,15.50
2019-02-18T08:53:22.356Z,16.60
2019-02-18T08:54:22.357Z,16.60
2019-02-18T08:55:22.335Z,14.60
2019-02-18T08:56:22.327Z,12.30
2019-02-18T08:57:22.318Z,14.50
2019-02-18T08:58:22.309Z,17.50
2019-02-18T08:59:22.311Z,16.60
2019-02-18T09:00:22.285Z,13.90
2019-02-18T09:01:22.278Z,15.20
2019-02-18T09:02:22.266Z,13.00
2019-02-18T09:03:22.257Z,15.20
2019-02-18T09:04:22.314Z,16.00
2019-02-18T09:05:22.361Z,11.90
2019-02-18T09:06:22.223Z,15.00
2019-02-18T09:07:22.211Z,13.60
2019-02-18T09:08:22.210Z,15.00
2019-02-18T09:09:22.230Z,15.80
2019-02-18T09:10:32.680Z,14.00
2019-02-18T09:11:23.170Z,12.80
2019-02-18T09:12:22.159Z,13.40
2019-02-18T09:13:22.154Z,14.70
2019-02-18T09:14:22.138Z,13.90
2019-02-18T09:15:22.144Z,14.20
2019-02-18T09:16:22.118Z,13.40
2019-02-18T09:17:22.106Z,15.50
2019-02-18T09:18:22.100Z,16.90
2019-02-18T09:19:22.086Z,16.10
2019-02-18T09:20:22.091Z,14.00
2019-02-18T09:21:22.066Z,16.20
2019-02-18T09:22:22.051Z,15.20
2019-02-18T09:23:22.042Z,15.30
2019-02-18T09:24:22.037Z,16.10
2019-02-18T09:25:22.032Z,14.90
2019-02-18T09:26:22.015Z,13.70
2019-02-18T09:27:22.012Z,13.00
2019-02-18T09:28:21.990Z,13.80
2019-02-18T09:29:21.984Z,12.30
2019-02-18T09:30:21.999Z,13.50
2019-02-18T09:31:21.960Z,13.30
2019-02-18T09:32:21.952Z,11.70
2019-02-18T09:33:21.939Z,12.30
2019-02-18T09:34:21.931Z,14.60
2019-02-18T09:35:21.922Z,14.50
2019-02-18T09:36:21.926Z,13.60
2019-02-18T09:37:21.899Z,13.40
2019-02-18T09:38:25.140Z,13.40
2019-02-18T09:39:30.804Z,13.40
2019-02-18T09:40:22.863Z,11.90
2019-02-18T09:41:21.883Z,14.20
2019-02-18T09:42:21.843Z,12.80
2019-02-18T09:43:21.835Z,13.60
2019-02-18T09:44:21.823Z,11.40
2019-02-18T09:45:21.837Z,13.30
2019-02-18T09:46:21.824Z,12.90
2019-02-18T09:47:21.787Z,11.00
2019-02-18T09:48:21.786Z,11.80
2019-02-18T09:49:21.773Z,14.30
2019-02-18T09:50:21.760Z,13.10
2019-02-18T09:51:21.761Z,12.30
2019-02-18T09:52:21.744Z,13.40
2019-02-18T09:53:21.735Z,13.40
2019-02-18T09:54:21.721Z,14.70
2019-02-18T09:55:21.713Z,15.00
2019-02-18T09:56:21.722Z,14.50
2019-02-18T09:57:21.686Z,12.00
2019-02-18T09:58:21.676Z,15.70
2019-02-18T09:59:21.665Z,16.90
2019-02-18T10:00:21.654Z,13.50
2019-02-18T10:01:21.647Z,16.50
2019-02-18T10:02:21.649Z,13.20
2019-02-18T10:03:31.416Z,16.60
2019-02-18T10:04:22.803Z,12.30
2019-02-18T10:05:21.606Z,11.60
2019-02-18T10:06:21.597Z,12.30
2019-02-18T10:07:21.603Z,12.40
2019-02-18T10:08:21.571Z,11.80
2019-02-18T10:09:21.571Z,13.30
2019-02-18T10:10:21.550Z,12.40
2019-02-18T10:11:21.544Z,13.40
2019-02-18T10:12:21.549Z,13.40
2019-02-18T10:13:21.518Z,13.30
2019-02-18T10:14:21.511Z,12.10
2019-02-18T10:15:21.496Z,10.70
2019-02-18T10:16:21.487Z,14.60
2019-02-18T10:17:21.501Z,11.10
2019-02-18T10:18:21.466Z,12.60
2019-02-18T10:19:21.468Z,13.70
2019-02-18T10:20:21.445Z,14.80
2019-02-18T10:21:21.459Z,12.30
2019-02-18T10:22:21.428Z,10.20
2019-02-18T10:23:21.428Z,12.60
2019-02-18T10:24:21.412Z,12.70
2019-02-18T10:25:21.413Z,12.40
2019-02-18T10:26:21.390Z,13.00
2019-02-18T10:27:21.375Z,12.20
2019-02-18T10:28:21.386Z,11.50
2019-02-18T10:29:21.352Z,11.20
2019-02-18T10:30:21.350Z,11.50
2019-02-18T10:31:21.329Z,13.60
2019-02-18T10:32:21.327Z,11.10
2019-02-18T10:33:21.354Z,9.80
2019-02-18T10:34:21.303Z,12.50
2019-02-18T10:35:21.299Z,11.70
2019-02-18T10:36:21.279Z,12.20
2019-02-18T10:37:21.271Z,13.50
2019-02-18T10:38:21.259Z,11.50
2019-02-18T10:39:21.346Z,12.10
2019-02-18T10:40:21.233Z,10.60
2019-02-18T10:41:21.230Z,11.70
2019-02-18T10:42:21.226Z,12.00
2019-02-18T10:43:30.140Z,11.30
2019-02-18T10:44:22.212Z,12.40
2019-02-18T10:45:21.196Z,9.90
2019-02-18T10:46:21.175Z,11.40
2019-02-18T10:47:21.163Z,12.50
2019-02-18T10:48:21.155Z,11.30
2019-02-18T10:49:21.279Z,11.50
2019-02-18T10:50:21.132Z,13.50
2019-02-18T10:51:21.128Z,9.60
2019-02-18T10:52:22.598Z,10.50
2019-02-18T10:53:21.098Z,16.00
2019-02-18T10:54:21.167Z,11.30
2019-02-18T10:55:21.091Z,10.50
2019-02-18T10:56:21.064Z,11.00
2019-02-18T10:57:21.049Z,10.30
2019-02-18T10:58:21.042Z,10.40
2019-02-18T10:59:21.039Z,10.60
2019-02-18T11:00:21.035Z,10.60
2019-02-18T11:01:21.018Z,10.60
2019-02-18T11:02:21.005Z,11.90
2019-02-18T11:03:21.004Z,11.60
2019-02-18T11:04:20.979Z,10.70
2019-02-18T11:05:20.998Z,13.00
2019-02-18T11:06:20.970Z,12.00
2019-02-18T11:07:20.961Z,13.00
2019-02-18T11:08:20.941Z,10.80
2019-02-18T11:09:20.936Z,10.40
2019-02-18T11:10:20.923Z,11.00
2019-02-18T11:11:20.926Z,11.40
2019-02-18T11:12:20.915Z,9.90
2019-02-18T11:13:20.885Z,9.10
2019-02-18T11:14:20.878Z,10.60
2019-02-18T11:15:20.868Z,10.10
2019-02-18T11:16:20.877Z,13.40
2019-02-18T11:17:20.849Z,9.60
2019-02-18T11:18:20.840Z,11.00
2019-02-18T11:19:20.860Z,13.00
2019-02-18T11:20:20.820Z,15.50
2019-02-18T11:21:20.829Z,14.30
2019-02-18T11:22:20.799Z,11.90
2019-02-18T11:23:20.787Z,16.00
2019-02-18T11:24:20.865Z,13.10
2019-02-18T11:25:20.768Z,16.60
2019-02-18T11:26:20.764Z,14.00
2019-02-18T11:27:20.740Z,15.30
2019-02-18T11:28:20.734Z,19.90
2019-02-18T11:29:20.719Z,10.90
2019-02-18T11:30:20.713Z,13.80
2019-02-18T11:31:20.712Z,15.20
2019-02-18T11:32:20.693Z,14.30
2019-02-18T11:33:20.681Z,14.40
2019-02-18T11:34:20.669Z,13.60
2019-02-18T11:35:20.662Z,12.90
2019-02-18T11:36:20.647Z,12.00
2019-02-18T11:37:20.663Z,17.10
2019-02-18T11:38:20.631Z,12.30
2019-02-18T11:39:20.617Z,15.00
2019-02-18T11:40:20.607Z,12.90
2019-02-18T11:41:27.133Z,11.70
2019-02-18T11:42:21.604Z,10.40
2019-02-18T11:43:20.577Z,11.50
2019-02-18T11:44:20.562Z,10.20
2019-02-18T11:45:20.562Z,12.30
2019-02-18T11:46:20.544Z,10.00
2019-02-18T11:47:20.533Z,9.30
2019-02-18T11:48:20.542Z,10.30
2019-02-18T11:49:20.514Z,13.00
2019-02-18T11:50:20.509Z,9.90
2019-02-18T11:51:20.497Z,11.50
2019-02-18T11:52:20.479Z,14.30
2019-02-18T11:53:20.495Z,11.70
2019-02-18T11:54:20.465Z,12.20
2019-02-18T11:55:20.452Z,12.60
2019-02-18T11:56:20.439Z,12.00
2019-02-18T11:57:20.432Z,13.10
2019-02-18T11:58:20.433Z,14.40
2019-02-18T11:59:24.301Z,10.90
2019-02-18T12:00:20.431Z,12.30
2019-02-18T12:01:20.392Z,10.10
2019-02-18T12:02:20.381Z,12.00
2019-02-18T12:03:20.383Z,12.00
2019-02-18T12:04:20.365Z,10.20
2019-02-18T12:05:20.358Z,13.50
2019-02-18T12:06:20.340Z,11.20
2019-02-18T12:07:20.333Z,11.50
2019-02-18T12:08:20.349Z,10.90
2019-02-18T12:09:20.309Z,11.70
2019-02-18T12:10:20.295Z,12.30
2019-02-18T12:11:20.286Z,10.90
2019-02-18T12:12:20.272Z,13.70
2019-02-18T12:13:20.265Z,14.10
2019-02-18T12:14:20.263Z,9.70
2019-02-18T12:15:20.242Z,13.60
2019-02-18T12:16:20.231Z,26.50
2019-02-18T12:17:20.935Z,58.30
2019-02-18T12:18:20.216Z,59.50
2019-02-18T12:19:20.217Z,43.20
2019-02-18T12:20:20.190Z,41.60
2019-02-18T12:21:20.177Z,40.90
2019-02-18T12:22:20.169Z,35.90
2019-02-18T12:23:20.155Z,30.80
2019-02-18T12:24:20.179Z,31.60
2019-02-18T12:25:20.146Z,30.80
2019-02-18T12:26:20.130Z,32.90
2019-02-18T12:27:20.117Z,27.40
2019-02-18T12:28:20.110Z,27.30
2019-02-18T12:29:26.272Z,24.60
2019-02-18T12:30:21.104Z,24.10
2019-02-18T12:31:20.081Z,24.60
2019-02-18T12:32:20.063Z,23.30
2019-02-18T12:33:20.100Z,22.10
2019-02-18T12:34:20.045Z,24.00
2019-02-18T12:35:30.295Z,20.70
2019-02-18T12:36:21.028Z,19.80
2019-02-18T12:37:20.010Z,17.80
2019-02-18T12:38:20.006Z,19.00
2019-02-18T12:39:22.049Z,19.30
2019-02-18T12:40:19.990Z,16.80
2019-02-18T12:41:19.984Z,16.30
2019-02-18T12:42:19.958Z,14.00
2019-02-18T12:43:19.950Z,16.40
2019-02-18T12:44:19.936Z,17.90
2019-02-18T12:45:19.924Z,13.40
2019-02-18T12:46:19.930Z,13.10
2019-02-18T12:47:19.906Z,16.20
2019-02-18T12:48:19.902Z,15.60
2019-02-18T12:49:19.885Z,15.70
2019-02-18T12:50:19.872Z,13.00
2019-02-18T12:51:19.879Z,14.50
2019-02-18T12:52:19.855Z,14.60
2019-02-18T12:53:19.846Z,14.20
2019-02-18T12:54:19.847Z,15.90
2019-02-18T12:55:19.880Z,12.30
2019-02-18T12:56:19.837Z,12.60
2019-02-18T12:57:19.797Z,11.30
2019-02-18T12:58:19.785Z,12.10
2019-02-18T12:59:19.779Z,12.20
2019-02-18T13:00:19.769Z,11.50
2019-02-18T13:01:19.756Z,13.20
2019-02-18T13:02:19.759Z,11.80
2019-02-18T13:03:19.736Z,11.30
2019-02-18T13:04:19.725Z,11.90